createdAt,value
2019-01-12T00:00:12.429Z,1001.11
2019-01-12T00:01:10.586Z,1001.11
2019-01-12T00:02:10.587Z,1001.07
2019-01-12T00:03:10.570Z,1001.11
2019-01-12T00:04:10.557Z,1001.07
2019-01-12T00:05:10.551Z,1001.10
2019-01-12T00:06:10.542Z,1001.07
2019-01-12T00:07:10.576Z,1001.05
2019-01-12T00:08:10.533Z,1001.09
2019-01-12T00:09:10.517Z,1001.02
2019-01-12T00:10:10.509Z,1001.05
2019-01-12T00:11:10.499Z,1001.03
2019-01-12T00:12:10.544Z,1001.02
2019-01-12T00:13:10.487Z,1001.02
2019-01-12T00:14:10.481Z,1000.98
2019-01-12T00:15:10.464Z,1001.02
2019-01-12T00:16:10.455Z,1001.00
2019-01-12T00:17:10.445Z,1001.03
2019-01-12T00:18:10.435Z,1001.06
2019-01-12T00:19:10.431Z,1001.08
2019-01-12T00:20:10.422Z,1001.04
2019-01-12T00:21:10.411Z,1001.00
2019-01-12T00:22:10.413Z,1000.99
2019-01-12T00:23:10.394Z,1001.04
2019-01-12T00:24:10.390Z,1001.01
2019-01-12T00:25:10.374Z,1001.01
2019-01-12T00:26:10.383Z,1001.00
2019-01-12T00:27:10.362Z,1000.98
2019-01-12T00:28:10.349Z,1001.00
2019-01-12T00:29:10.345Z,1000.97
2019-01-12T00:30:10.334Z,1000.98
2019-01-12T00:31:10.802Z,1000.99
2019-01-12T00:32:10.315Z,1000.99
2019-01-12T00:33:10.306Z,1000.98
2019-01-12T00:34:10.294Z,1000.99
2019-01-12T00:35:10.288Z,1000.98
2019-01-12T00:36:10.277Z,1000.96
2019-01-12T00:37:10.275Z,1000.97
2019-01-12T00:38:11.932Z,1000.96
2019-01-12T00:39:10.257Z,1000.93
2019-01-12T00:40:10.248Z,1000.99
2019-01-12T00:41:10.246Z,1001.00
2019-01-12T00:42:10.228Z,1000.97
2019-01-12T00:43:10.220Z,1000.94
2019-01-12T00:44:10.215Z,1000.96
2019-01-12T00:45:10.202Z,1000.99
2019-01-12T00:46:10.193Z,1001.01
2019-01-12T00:47:10.194Z,1001.06
2019-01-12T00:48:10.179Z,1001.02
2019-01-12T00:49:10.172Z,1001.05
2019-01-12T00:50:10.162Z,1000.99
2019-01-12T00:51:10.160Z,1001.05
2019-01-12T00:52:10.144Z,1001.07
2019-01-12T00:53:10.137Z,1001.06
2019-01-12T00:54:10.128Z,1001.04
2019-01-12T00:55:10.119Z,1001.07
2019-01-12T00:56:10.108Z,1001.07
2019-01-12T00:57:10.104Z,1001.10
2019-01-12T00:58:10.094Z,1001.10
2019-01-12T00:59:10.089Z,1001.10
2019-01-12T01:00:10.077Z,1001.09
2019-01-12T01:01:10.071Z,1001.13
2019-01-12T01:02:10.061Z,1001.11
2019-01-12T01:03:10.055Z,1001.09
2019-01-12T01:04:10.046Z,1001.11
2019-01-12T01:05:10.033Z,1001.08
2019-01-12T01:06:10.026Z,1001.19
2019-01-12T01:07:10.016Z,1001.19
2019-01-12T01:08:10.011Z,1001.15
2019-01-12T01:09:10.001Z,1001.21
2019-01-12T01:10:09.993Z,1001.15
2019-01-12T01:11:09.984Z,1001.17
2019-01-12T01:12:09.977Z,1001.24
2019-01-12T01:13:09.968Z,1001.19
2019-01-12T01:14:09.960Z,1001.19
2019-01-12T01:15:09.952Z,1001.19
2019-01-12T01:16:09.941Z,1001.27
2019-01-12T01:17:09.933Z,1001.25
2019-01-12T01:18:09.926Z,1001.27
2019-01-12T01:19:09.914Z,1001.30
2019-01-12T01:20:09.908Z,1001.31
2019-01-12T01:21:09.898Z,1001.33
2019-01-12T01:22:09.890Z,1001.33
2019-01-12T01:23:09.885Z,1001.38
2019-01-12T01:24:09.875Z,1001.34
2019-01-12T01:25:09.883Z,1001.39
2019-01-12T01:26:09.861Z,1001.43
2019-01-12T01:27:09.851Z,1001.33
2019-01-12T01:28:09.841Z,1001.40
2019-01-12T01:29:09.832Z,1001.43
2019-01-12T01:30:09.825Z,1001.44
2019-01-12T01:31:11.439Z,1001.44
2019-01-12T01:32:09.805Z,1001.37
2019-01-12T01:33:09.795Z,1001.41
2019-01-12T01:34:09.790Z,1001.42
2019-01-12T01:35:09.780Z,1001.44
2019-01-12T01:36:09.772Z,1001.44
2019-01-12T01:37:09.765Z,1001.47
2019-01-12T01:38:09.756Z,1001.44
2019-01-12T01:39:09.747Z,1001.42
2019-01-12T01:40:09.744Z,1001.37
2019-01-12T01:41:09.731Z,1001.46
2019-01-12T01:42:09.724Z,1001.43
2019-01-12T01:43:09.718Z,1001.42
2019-01-12T01:44:09.707Z,1001.43
2019-01-12T01:45:09.695Z,1001.41
2019-01-12T01:46:09.686Z,1001.44
2019-01-12T01:47:09.676Z,1001.44
2019-01-12T01:48:09.675Z,1001.46
2019-01-12T01:49:09.665Z,1001.48
2019-01-12T01:50:09.655Z,1001.49
2019-01-12T01:51:09.646Z,1001.55
2019-01-12T01:52:09.638Z,1001.52
2019-01-12T01:53:09.630Z,1001.47
2019-01-12T01:54:11.440Z,1001.50
2019-01-12T01:55:09.614Z,1001.51
2019-01-12T01:56:09.606Z,1001.44
2019-01-12T01:57:09.644Z,1001.43
2019-01-12T01:58:09.589Z,1001.44
2019-01-12T01:59:09.583Z,1001.42
2019-01-12T02:00:09.572Z,1001.45
2019-01-12T02:01:09.563Z,1001.42
2019-01-12T02:02:09.554Z,1001.43
2019-01-12T02:03:09.963Z,1001.41
2019-01-12T02:04:09.534Z,1001.45
2019-01-12T02:05:09.531Z,1001.42
2019-01-12T02:06:09.521Z,1001.40
2019-01-12T02:07:09.513Z,1001.42
2019-01-12T02:08:09.506Z,1001.46
2019-01-12T02:09:09.498Z,1001.40
2019-01-12T02:10:09.490Z,1001.47
2019-01-12T02:11:09.482Z,1001.37
2019-01-12T02:12:09.475Z,1001.45
2019-01-12T02:13:09.467Z,1001.44
2019-01-12T02:14:09.456Z,1001.46
2019-01-12T02:15:09.445Z,1001.50
2019-01-12T02:16:09.440Z,1001.43
2019-01-12T02:17:09.435Z,1001.45
2019-01-12T02:18:09.430Z,1001.50
2019-01-12T02:19:09.413Z,1001.47
2019-01-12T02:20:09.410Z,1001.50
2019-01-12T02:21:09.398Z,1001.42
2019-01-12T02:22:09.391Z,1001.49
2019-01-12T02:23:09.388Z,1001.48
2019-01-12T02:24:09.372Z,1001.47
2019-01-12T02:25:09.369Z,1001.48
2019-01-12T02:26:09.356Z,1001.45
2019-01-12T02:27:09.346Z,1001.50
2019-01-12T02:28:09.338Z,1001.46
2019-01-12T02:29:09.332Z,1001.49
2019-01-12T02:30:09.323Z,1001.45
2019-01-12T02:31:09.317Z,1001.46
2019-01-12T02:32:09.308Z,1001.45
2019-01-12T02:33:09.294Z,1001.41
2019-01-12T02:34:09.289Z,1001.44
2019-01-12T02:35:09.283Z,1001.44
2019-01-12T02:36:09.275Z,1001.38
2019-01-12T02:37:09.269Z,1001.40
2019-01-12T02:38:09.255Z,1001.42
2019-01-12T02:39:09.249Z,1001.42
2019-01-12T02:40:09.238Z,1001.39
2019-01-12T02:41:09.237Z,1001.37
2019-01-12T02:42:09.225Z,1001.41
2019-01-12T02:43:09.214Z,1001.39
2019-01-12T02:44:09.204Z,1001.35
2019-01-12T02:45:09.195Z,1001.35
2019-01-12T02:46:09.189Z,1001.33
2019-01-12T02:47:09.187Z,1001.38
2019-01-12T02:48:09.177Z,1001.35
2019-01-12T02:49:09.165Z,1001.40
2019-01-12T02:50:09.154Z,1001.36
2019-01-12T02:51:09.150Z,1001.39
2019-01-12T02:52:09.141Z,1001.37
2019-01-12T02:53:09.138Z,1001.34
2019-01-12T02:54:09.126Z,1001.39
2019-01-12T02:55:09.290Z,1001.35
2019-01-12T02:56:09.108Z,1001.37
2019-01-12T02:57:09.100Z,1001.34
2019-01-12T02:58:09.095Z,1001.36
2019-01-12T02:59:09.080Z,1001.33
2019-01-12T03:00:09.076Z,1001.34
2019-01-12T03:01:09.109Z,1001.29
2019-01-12T03:02:09.058Z,1001.31
2019-01-12T03:03:09.051Z,1001.32
2019-01-12T03:04:09.043Z,1001.33
2019-01-12T03:05:09.038Z,1001.33
2019-01-12T03:06:09.033Z,1001.31
2019-01-12T03:07:09.017Z,1001.34
2019-01-12T03:08:09.018Z,1001.34
2019-01-12T03:09:09.005Z,1001.34
2019-01-12T03:10:08.995Z,1001.36
2019-01-12T03:11:08.991Z,1001.37
2019-01-12T03:12:08.977Z,1001.35
2019-01-12T03:13:08.994Z,1001.38
2019-01-12T03:14:08.990Z,1001.38
2019-01-12T03:15:08.967Z,1001.42
2019-01-12T03:16:08.942Z,1001.38
2019-01-12T03:17:08.942Z,1001.39
2019-01-12T03:18:08.927Z,1001.38
2019-01-12T03:19:08.919Z,1001.39
2019-01-12T03:20:08.921Z,1001.39
2019-01-12T03:21:08.912Z,1001.38
2019-01-12T03:22:08.900Z,1001.36
2019-01-12T03:23:08.893Z,1001.36
2019-01-12T03:24:08.882Z,1001.31
2019-01-12T03:25:17.217Z,1001.31
2019-01-12T03:26:08.862Z,1001.32
2019-01-12T03:27:08.854Z,1001.27
2019-01-12T03:28:08.842Z,1001.35
2019-01-12T03:29:08.840Z,1001.30
2019-01-12T03:30:08.827Z,1001.30
2019-01-12T03:31:08.831Z,1001.31
2019-01-12T03:32:08.809Z,1001.31
2019-01-12T03:33:08.817Z,1001.28
2019-01-12T03:34:08.797Z,1001.32
2019-01-12T03:35:09.110Z,1001.31
2019-01-12T03:36:08.780Z,1001.27
2019-01-12T03:37:08.768Z,1001.30
2019-01-12T03:38:08.766Z,1001.29
2019-01-12T03:39:08.749Z,1001.24
2019-01-12T03:40:08.743Z,1001.34
2019-01-12T03:41:08.756Z,1001.30
2019-01-12T03:42:08.727Z,1001.28
2019-01-12T03:43:08.732Z,1001.27
2019-01-12T03:44:08.711Z,1001.29
2019-01-12T03:45:08.706Z,1001.25
2019-01-12T03:46:08.694Z,1001.25
2019-01-12T03:47:08.687Z,1001.28
2019-01-12T03:48:08.677Z,1001.22
2019-01-12T03:49:08.672Z,1001.28
2019-01-12T03:50:08.661Z,1001.28
2019-01-12T03:51:08.654Z,1001.27
2019-01-12T03:52:08.650Z,1001.26
2019-01-12T03:53:08.636Z,1001.20
2019-01-12T03:54:08.632Z,1001.22
2019-01-12T03:55:08.628Z,1001.21
2019-01-12T03:56:08.618Z,1001.25
2019-01-12T03:57:08.603Z,1001.23
2019-01-12T03:58:08.600Z,1001.22
2019-01-12T03:59:08.590Z,1001.23
2019-01-12T04:00:08.579Z,1001.23
2019-01-12T04:01:08.577Z,1001.21
2019-01-12T04:02:08.565Z,1001.17
2019-01-12T04:03:08.554Z,1001.20
2019-01-12T04:04:08.555Z,1001.18
2019-01-12T04:05:10.456Z,1001.16
2019-01-12T04:06:09.479Z,1001.23
2019-01-12T04:07:08.522Z,1001.14
2019-01-12T04:08:08.515Z,1001.19
2019-01-12T04:09:08.521Z,1001.17
2019-01-12T04:10:08.506Z,1001.16
2019-01-12T04:11:08.506Z,1001.19
2019-01-12T04:12:08.490Z,1001.21
2019-01-12T04:13:08.478Z,1001.15
2019-01-12T04:14:08.466Z,1001.26
2019-01-12T04:15:08.458Z,1001.19
2019-01-12T04:16:08.456Z,1001.19
2019-01-12T04:17:08.442Z,1001.21
2019-01-12T04:18:35.962Z,1001.22
2019-01-12T04:19:08.455Z,1001.19
2019-01-12T04:20:08.431Z,1001.17
2019-01-12T04:21:08.416Z,1001.19
2019-01-12T04:22:08.406Z,1001.16
2019-01-12T04:23:08.393Z,1001.15
2019-01-12T04:24:08.391Z,1001.12
2019-01-12T04:25:08.380Z,1001.15
2019-01-12T04:26:08.378Z,1001.13
2019-01-12T04:27:08.359Z,1001.16
2019-01-12T04:28:08.379Z,1001.11
2019-01-12T04:29:08.344Z,1001.12
2019-01-12T04:30:08.341Z,1001.12
2019-01-12T04:31:08.331Z,1001.12
2019-01-12T04:32:08.328Z,1001.11
2019-01-12T04:33:08.321Z,1001.17
2019-01-12T04:34:08.308Z,1001.16
2019-01-12T04:35:08.300Z,1001.16
2019-01-12T04:36:08.293Z,1001.17
2019-01-12T04:37:08.291Z,1001.16
2019-01-12T04:38:08.282Z,1001.12
2019-01-12T04:39:08.273Z,1001.20
2019-01-12T04:40:08.263Z,1001.18
2019-01-12T04:41:08.255Z,1001.13
2019-01-12T04:42:08.242Z,1001.18
2019-01-12T04:43:08.233Z,1001.14
2019-01-12T04:44:08.226Z,1001.18
2019-01-12T04:45:08.224Z,1001.18
2019-01-12T04:46:08.209Z,1001.19
2019-01-12T04:47:08.206Z,1001.19
2019-01-12T04:48:08.192Z,1001.17
2019-01-12T04:49:08.186Z,1001.07
2019-01-12T04:50:08.180Z,1001.09
2019-01-12T04:51:08.174Z,1001.00
2019-01-12T04:52:08.165Z,1000.93
2019-01-12T04:53:08.153Z,1001.06
2019-01-12T04:54:08.149Z,1001.04
2019-01-12T04:55:08.146Z,1001.06
2019-01-12T04:56:08.132Z,1001.07
2019-01-12T04:57:08.123Z,1001.02
2019-01-12T04:58:08.113Z,1001.07
2019-01-12T04:59:08.103Z,1001.06
2019-01-12T05:00:08.099Z,1001.07
2019-01-12T05:01:08.090Z,1000.97
2019-01-12T05:02:08.078Z,1001.05
2019-01-12T05:03:08.073Z,1001.00
2019-01-12T05:04:08.063Z,1001.03
2019-01-12T05:05:08.059Z,1001.06
2019-01-12T05:06:08.054Z,1001.05
2019-01-12T05:07:08.261Z,1001.07
2019-01-12T05:08:08.032Z,1001.09
2019-01-12T05:09:08.026Z,1001.17
2019-01-12T05:10:08.054Z,1001.13
2019-01-12T05:11:08.008Z,1001.12
2019-01-12T05:12:08.003Z,1001.16
2019-01-12T05:13:07.993Z,1001.15
2019-01-12T05:14:07.984Z,1001.14
2019-01-12T05:15:07.971Z,1001.17
2019-01-12T05:16:07.968Z,1001.14
2019-01-12T05:17:07.963Z,1001.08
2019-01-12T05:18:07.949Z,1001.12
2019-01-12T05:19:07.946Z,1001.14
2019-01-12T05:20:07.935Z,1001.06
2019-01-12T05:21:07.928Z,1001.05
2019-01-12T05:22:07.921Z,1001.00
2019-01-12T05:23:07.909Z,1001.00
2019-01-12T05:24:07.908Z,1001.07
2019-01-12T05:25:07.892Z,1001.08
2019-01-12T05:26:07.884Z,1001.10
2019-01-12T05:27:07.895Z,1001.13
2019-01-12T05:28:07.872Z,1001.17
2019-01-12T05:29:07.859Z,1001.14
2019-01-12T05:30:07.853Z,1001.14
2019-01-12T05:31:07.850Z,1001.16
2019-01-12T05:32:07.834Z,1001.14
2019-01-12T05:33:07.834Z,1001.18
2019-01-12T05:34:07.819Z,1001.16
2019-01-12T05:35:07.813Z,1001.19
2019-01-12T05:36:07.811Z,1001.13
2019-01-12T05:37:07.796Z,1001.16
2019-01-12T05:38:08.640Z,1001.19
2019-01-12T05:39:07.777Z,1001.18
2019-01-12T05:40:07.774Z,1001.17
2019-01-12T05:41:07.762Z,1001.16
2019-01-12T05:42:07.755Z,1001.13
2019-01-12T05:43:07.746Z,1001.20
2019-01-12T05:44:07.738Z,1001.21
2019-01-12T05:45:07.734Z,1001.20
2019-01-12T05:46:07.722Z,1001.26
2019-01-12T05:47:07.713Z,1001.21
2019-01-12T05:48:07.708Z,1001.20
2019-01-12T05:49:07.697Z,1001.22
2019-01-12T05:50:07.691Z,1001.22
2019-01-12T05:51:07.684Z,1001.26
2019-01-12T05:52:07.669Z,1001.25
2019-01-12T05:53:07.662Z,1001.26
2019-01-12T05:54:07.656Z,1001.27
2019-01-12T05:55:07.646Z,1001.30
2019-01-12T05:56:07.638Z,1001.24
2019-01-12T05:57:07.635Z,1001.26
2019-01-12T05:58:07.621Z,1001.26
2019-01-12T05:59:07.617Z,1001.31
2019-01-12T06:00:07.608Z,1001.29
2019-01-12T06:01:08.924Z,1001.28
2019-01-12T06:02:07.590Z,1001.28
2019-01-12T06:03:07.578Z,1001.26
2019-01-12T06:04:07.613Z,1001.30
2019-01-12T06:05:07.570Z,1001.25
2019-01-12T06:06:07.558Z,1001.24
2019-01-12T06:07:07.555Z,1001.25
2019-01-12T06:08:07.541Z,1001.27
2019-01-12T06:09:07.537Z,1001.27
2019-01-12T06:10:07.523Z,1001.27
2019-01-12T06:11:07.520Z,1001.29
2019-01-12T06:12:07.508Z,1001.24
2019-01-12T06:13:07.501Z,1001.29
2019-01-12T06:14:07.489Z,1001.27
2019-01-12T06:15:07.485Z,1001.30
2019-01-12T06:16:07.481Z,1001.26
2019-01-12T06:17:07.472Z,1001.26
2019-01-12T06:18:07.468Z,1001.25
2019-01-12T06:19:07.453Z,1001.29
2019-01-12T06:20:07.444Z,1001.26
2019-01-12T06:21:08.970Z,1001.26
2019-01-12T06:22:07.428Z,1001.28
2019-01-12T06:23:07.423Z,1001.32
2019-01-12T06:24:07.411Z,1001.31
2019-01-12T06:25:07.405Z,1001.37
2019-01-12T06:26:07.389Z,1001.38
2019-01-12T06:27:07.392Z,1001.33
2019-01-12T06:28:07.379Z,1001.39
2019-01-12T06:29:07.374Z,1001.40
2019-01-12T06:30:07.359Z,1001.39
2019-01-12T06:31:07.352Z,1001.38
2019-01-12T06:32:07.355Z,1001.39
2019-01-12T06:33:08.967Z,1001.40
2019-01-12T06:34:07.338Z,1001.37
2019-01-12T06:35:07.325Z,1001.36
2019-01-12T06:36:07.313Z,1001.32
2019-01-12T06:37:07.302Z,1001.36
2019-01-12T06:38:07.296Z,1001.33
2019-01-12T06:39:07.419Z,1001.31
2019-01-12T06:40:07.280Z,1001.30
2019-01-12T06:41:07.276Z,1001.34
2019-01-12T06:42:07.266Z,1001.28
2019-01-12T06:43:07.255Z,1001.33
2019-01-12T06:44:07.246Z,1001.31
2019-01-12T06:45:07.238Z,1001.31
2019-01-12T06:46:07.243Z,1001.29
2019-01-12T06:47:07.220Z,1001.27
2019-01-12T06:48:07.212Z,1001.30
2019-01-12T06:49:07.203Z,1001.28
2019-01-12T06:50:07.205Z,1001.27
2019-01-12T06:51:07.188Z,1001.26
2019-01-12T06:52:07.181Z,1001.24
2019-01-12T06:53:07.176Z,1001.29
2019-01-12T06:54:07.159Z,1001.29
2019-01-12T06:55:07.157Z,1001.32
2019-01-12T06:56:10.837Z,1001.33
2019-01-12T06:57:07.137Z,1001.28
2019-01-12T06:58:07.129Z,1001.32
2019-01-12T06:59:07.120Z,1001.29
2019-01-12T07:00:07.112Z,1001.30
2019-01-12T07:01:07.099Z,1001.32
2019-01-12T07:02:07.095Z,1001.28
2019-01-12T07:03:07.085Z,1001.28
2019-01-12T07:04:07.080Z,1001.25
2019-01-12T07:05:07.070Z,1001.28
2019-01-12T07:06:07.069Z,1001.30
2019-01-12T07:07:08.971Z,1001.28
2019-01-12T07:08:09.010Z,1001.32
2019-01-12T07:09:07.039Z,1001.24
2019-01-12T07:10:07.802Z,1001.28
2019-01-12T07:11:07.017Z,1001.30
2019-01-12T07:12:07.020Z,1001.25
2019-01-12T07:13:07.004Z,1001.29
2019-01-12T07:14:06.992Z,1001.26
2019-01-12T07:15:06.989Z,1001.23
2019-01-12T07:16:06.980Z,1001.25
2019-01-12T07:17:06.972Z,1001.25
2019-01-12T07:18:08.947Z,1001.27
2019-01-12T07:19:06.952Z,1001.28
2019-01-12T07:20:06.945Z,1001.28
2019-01-12T07:21:06.939Z,1001.34
2019-01-12T07:22:06.928Z,1001.30
2019-01-12T07:23:06.919Z,1001.32
2019-01-12T07:24:06.911Z,1001.29
2019-01-12T07:25:06.908Z,1001.31
2019-01-12T07:26:06.902Z,1001.29
2019-01-12T07:27:06.892Z,1001.26
2019-01-12T07:28:06.877Z,1001.28
2019-01-12T07:29:06.873Z,1001.33
2019-01-12T07:30:06.861Z,1001.33
2019-01-12T07:31:06.852Z,1001.34
2019-01-12T07:32:06.845Z,1001.32
2019-01-12T07:33:08.472Z,1001.32
2019-01-12T07:34:06.827Z,1001.34
2019-01-12T07:35:06.820Z,1001.32
2019-01-12T07:36:06.835Z,1001.32
2019-01-12T07:37:06.805Z,1001.38
2019-01-12T07:38:06.805Z,1001.32
2019-01-12T07:39:06.802Z,1001.32
2019-01-12T07:40:06.780Z,1001.32
2019-01-12T07:41:06.780Z,1001.37
2019-01-12T07:42:06.767Z,1001.31
2019-01-12T07:43:06.775Z,1001.29
2019-01-12T07:44:06.748Z,1001.32
2019-01-12T07:45:06.759Z,1001.33
2019-01-12T07:46:06.724Z,1001.29
2019-01-12T07:47:06.718Z,1001.27
2019-01-12T07:48:06.716Z,1001.30
2019-01-12T07:49:06.708Z,1001.29
2019-01-12T07:50:06.698Z,1001.34
2019-01-12T07:51:06.688Z,1001.31
2019-01-12T07:52:06.682Z,1001.29
2019-01-12T07:53:06.673Z,1001.30
2019-01-12T07:54:06.672Z,1001.29
2019-01-12T07:55:06.656Z,1001.27
2019-01-12T07:56:06.647Z,1001.19
2019-01-12T07:57:06.638Z,1001.13
2019-01-12T07:58:06.642Z,1001.14
2019-01-12T07:59:06.622Z,1001.15
2019-01-12T08:00:06.617Z,1001.16
2019-01-12T08:01:06.606Z,1001.18
2019-01-12T08:02:06.600Z,1001.18
2019-01-12T08:03:06.588Z,1001.20
2019-01-12T08:04:06.581Z,1001.21
2019-01-12T08:05:06.937Z,1001.26
2019-01-12T08:06:06.569Z,1001.22
2019-01-12T08:07:06.554Z,1001.17
2019-01-12T08:08:06.555Z,1001.22
2019-01-12T08:09:06.546Z,1001.25
2019-01-12T08:10:06.533Z,1001.18
2019-01-12T08:11:06.545Z,1001.22
2019-01-12T08:12:06.512Z,1001.24
2019-01-12T08:13:06.506Z,1001.24
2019-01-12T08:14:06.498Z,1001.22
2019-01-12T08:15:06.488Z,1001.20
2019-01-12T08:16:06.481Z,1001.23
2019-01-12T08:17:06.472Z,1001.23
2019-01-12T08:18:06.465Z,1001.17
2019-01-12T08:19:06.457Z,1001.25
2019-01-12T08:20:06.449Z,1001.22
2019-01-12T08:21:06.444Z,1001.14
2019-01-12T08:22:06.434Z,1001.14
2019-01-12T08:23:06.424Z,1001.11
2019-01-12T08:24:06.418Z,1001.02
2019-01-12T08:25:06.407Z,1001.02
2019-01-12T08:26:06.400Z,1001.00
2019-01-12T08:27:06.392Z,1001.04
2019-01-12T08:28:07.981Z,1000.99
2019-01-12T08:29:06.376Z,1001.04
2019-01-12T08:30:06.367Z,1001.08
2019-01-12T08:31:06.356Z,1001.00
2019-01-12T08:32:06.346Z,1001.03
2019-01-12T08:33:06.352Z,1001.00
2019-01-12T08:34:06.331Z,1001.05
2019-01-12T08:35:06.328Z,1001.03
2019-01-12T08:36:06.316Z,1001.05
2019-01-12T08:37:06.310Z,1001.10
2019-01-12T08:38:06.324Z,1001.05
2019-01-12T08:39:06.316Z,1001.09
2019-01-12T08:40:06.290Z,1001.07
2019-01-12T08:41:06.280Z,1001.06
2019-01-12T08:42:06.946Z,1001.06
2019-01-12T08:43:06.261Z,1001.09
2019-01-12T08:44:06.255Z,1001.05
2019-01-12T08:45:06.246Z,1001.05
2019-01-12T08:46:06.239Z,1001.00
2019-01-12T08:47:06.230Z,1001.02
2019-01-12T08:48:06.221Z,1000.98
2019-01-12T08:49:06.212Z,1001.00
2019-01-12T08:50:06.208Z,1000.99
2019-01-12T08:51:06.242Z,1000.96
2019-01-12T08:52:06.189Z,1000.96
2019-01-12T08:53:06.182Z,1000.90
2019-01-12T08:54:06.175Z,1000.99
2019-01-12T08:55:06.175Z,1000.86
2019-01-12T08:56:06.159Z,1000.85
2019-01-12T08:57:06.152Z,1000.86
2019-01-12T08:58:06.136Z,1000.86
2019-01-12T08:59:06.132Z,1000.88
2019-01-12T09:00:06.127Z,1000.84
2019-01-12T09:01:06.116Z,1000.88
2019-01-12T09:02:06.112Z,1000.86
2019-01-12T09:03:06.098Z,1000.87
2019-01-12T09:04:06.099Z,1000.81
2019-01-12T09:05:06.085Z,1000.89
2019-01-12T09:06:06.081Z,1000.84
2019-01-12T09:07:06.067Z,1000.86
2019-01-12T09:08:06.067Z,1000.84
2019-01-12T09:09:06.057Z,1000.80
2019-01-12T09:10:06.046Z,1000.87
2019-01-12T09:11:06.038Z,1000.79
2019-01-12T09:12:06.025Z,1000.87
2019-01-12T09:13:06.019Z,1000.80
2019-01-12T09:14:06.013Z,1000.80
2019-01-12T09:15:06.002Z,1000.76
2019-01-12T09:16:06.001Z,1000.73
2019-01-12T09:17:05.993Z,1000.75
2019-01-12T09:18:05.983Z,1000.71
2019-01-12T09:19:05.986Z,1000.72
2019-01-12T09:20:05.970Z,1000.70
2019-01-12T09:21:05.959Z,1000.67
2019-01-12T09:22:05.966Z,1000.70
2019-01-12T09:23:05.948Z,1000.75
2019-01-12T09:24:05.931Z,1000.69
2019-01-12T09:25:05.926Z,1000.74
2019-01-12T09:26:05.918Z,1000.72
2019-01-12T09:27:05.910Z,1000.68
2019-01-12T09:28:05.914Z,1000.66
2019-01-12T09:29:05.897Z,1000.67
2019-01-12T09:30:05.890Z,1000.60
2019-01-12T09:31:05.879Z,1000.61
2019-01-12T09:32:05.874Z,1000.63
2019-01-12T09:33:05.861Z,1000.64
2019-01-12T09:34:05.861Z,1000.68
2019-01-12T09:35:05.848Z,1000.66
2019-01-12T09:36:05.843Z,1000.69
2019-01-12T09:37:05.834Z,1000.62
2019-01-12T09:38:05.826Z,1000.60
2019-01-12T09:39:05.819Z,1000.61
2019-01-12T09:40:05.816Z,1000.63
2019-01-12T09:41:05.799Z,1000.65
2019-01-12T09:42:05.805Z,1000.65
2019-01-12T09:43:05.785Z,1000.64
2019-01-12T09:44:05.784Z,1000.67
2019-01-12T09:45:05.772Z,1000.63
2019-01-12T09:46:05.770Z,1000.55
2019-01-12T09:47:05.758Z,1000.59
2019-01-12T09:48:05.756Z,1000.54
2019-01-12T09:49:05.744Z,1000.58
2019-01-12T09:50:07.488Z,1000.50
2019-01-12T09:51:05.729Z,1000.49
2019-01-12T09:52:05.724Z,1000.45
2019-01-12T09:53:05.715Z,1000.44
2019-01-12T09:54:05.706Z,1000.43
2019-01-12T09:55:05.704Z,1000.44
2019-01-12T09:56:05.695Z,1000.41
2019-01-12T09:57:05.686Z,1000.36
2019-01-12T09:58:05.676Z,1000.39
2019-01-12T09:59:05.672Z,1000.41
2019-01-12T10:00:05.662Z,1000.42
2019-01-12T10:01:05.664Z,1000.42
2019-01-12T10:02:05.648Z,1000.33
2019-01-12T10:03:05.642Z,1000.39
2019-01-12T10:04:05.634Z,1000.38
2019-01-12T10:05:05.624Z,1000.35
2019-01-12T10:06:05.631Z,1000.32
2019-01-12T10:07:05.609Z,1000.32
2019-01-12T10:08:05.602Z,1000.35
2019-01-12T10:09:05.611Z,1000.25
2019-01-12T10:10:07.503Z,1000.24
2019-01-12T10:11:05.579Z,1000.29
2019-01-12T10:12:05.576Z,1000.22
2019-01-12T10:13:05.578Z,1000.25
2019-01-12T10:14:06.112Z,1000.22
2019-01-12T10:15:05.575Z,1000.21
2019-01-12T10:16:05.542Z,1000.18
2019-01-12T10:17:05.539Z,1000.18
2019-01-12T10:18:05.525Z,1000.16
2019-01-12T10:19:05.523Z,1000.13
2019-01-12T10:20:05.515Z,1000.11
2019-01-12T10:21:05.534Z,1000.08
2019-01-12T10:22:05.496Z,1000.08
2019-01-12T10:23:05.491Z,1000.08
2019-01-12T10:24:05.546Z,1000.06
2019-01-12T10:25:05.473Z,1000.08
2019-01-12T10:26:05.503Z,1000.03
2019-01-12T10:27:05.463Z,1000.03
2019-01-12T10:28:05.454Z,1000.05
2019-01-12T10:29:05.449Z,1000.03
2019-01-12T10:30:05.440Z,1000.06
2019-01-12T10:31:05.438Z,1000.03
2019-01-12T10:32:05.431Z,1000.05
2019-01-12T10:33:05.415Z,1000.01
2019-01-12T10:34:05.430Z,1000.00
2019-01-12T10:35:05.401Z,999.92
2019-01-12T10:36:05.393Z,999.91
2019-01-12T10:37:05.386Z,999.94
2019-01-12T10:38:05.394Z,999.94
2019-01-12T10:39:05.376Z,999.96
2019-01-12T10:40:05.367Z,999.98
2019-01-12T10:41:05.355Z,999.96
2019-01-12T10:42:05.349Z,999.91
2019-01-12T10:43:05.345Z,999.90
2019-01-12T10:44:05.354Z,999.89
2019-01-12T10:45:05.329Z,999.87
2019-01-12T10:46:05.320Z,999.83
2019-01-12T10:47:05.314Z,999.86
2019-01-12T10:48:05.307Z,999.84
2019-01-12T10:49:05.300Z,999.79
2019-01-12T10:50:05.296Z,999.81
2019-01-12T10:51:05.287Z,999.76
2019-01-12T10:52:05.271Z,999.75
2019-01-12T10:53:06.997Z,999.78
2019-01-12T10:54:05.263Z,999.78
2019-01-12T10:55:07.018Z,999.77
2019-01-12T10:56:05.275Z,999.73
2019-01-12T10:57:05.758Z,999.72
2019-01-12T10:58:05.239Z,999.69
2019-01-12T10:59:05.222Z,999.72
2019-01-12T11:00:05.215Z,999.74
2019-01-12T11:01:05.208Z,999.71
2019-01-12T11:02:05.204Z,999.68
2019-01-12T11:03:05.200Z,999.66
2019-01-12T11:04:05.201Z,999.61
2019-01-12T11:05:05.189Z,999.61
2019-01-12T11:06:05.168Z,999.57
2019-01-12T11:07:05.166Z,999.56
2019-01-12T11:08:05.164Z,999.57
2019-01-12T11:09:05.149Z,999.58
2019-01-12T11:10:05.141Z,999.51
2019-01-12T11:11:05.137Z,999.48
2019-01-12T11:12:05.135Z,999.45
2019-01-12T11:13:05.118Z,999.38
2019-01-12T11:14:05.116Z,999.31
2019-01-12T11:15:05.119Z,999.28
2019-01-12T11:16:05.100Z,999.20
2019-01-12T11:17:05.094Z,999.23
2019-01-12T11:18:05.083Z,999.19
2019-01-12T11:19:05.076Z,999.20
2019-01-12T11:20:05.071Z,999.17
2019-01-12T11:21:05.057Z,999.16
2019-01-12T11:22:05.057Z,999.08
2019-01-12T11:23:05.054Z,999.10
2019-01-12T11:24:05.038Z,999.12
2019-01-12T11:25:05.033Z,999.07
2019-01-12T11:26:05.054Z,999.06
2019-01-12T11:27:05.013Z,999.04
2019-01-12T11:28:05.009Z,999.03
2019-01-12T11:29:05.002Z,999.01
2019-01-12T11:30:04.991Z,998.94
2019-01-12T11:31:04.993Z,998.92
2019-01-12T11:32:04.977Z,998.96
2019-01-12T11:33:04.971Z,998.91
2019-01-12T11:34:04.966Z,998.85
2019-01-12T11:35:04.957Z,998.88
2019-01-12T11:36:04.948Z,998.91
2019-01-12T11:37:04.944Z,998.84
2019-01-12T11:38:04.945Z,998.84
2019-01-12T11:39:04.930Z,998.85
2019-01-12T11:40:04.914Z,998.80
2019-01-12T11:41:04.919Z,998.78
2019-01-12T11:42:04.900Z,998.74
2019-01-12T11:43:04.904Z,998.69
2019-01-12T11:44:04.893Z,998.67
2019-01-12T11:45:04.886Z,998.68
2019-01-12T11:46:05.274Z,998.69
2019-01-12T11:47:04.868Z,998.59
2019-01-12T11:48:04.862Z,998.64
2019-01-12T11:49:04.853Z,998.64
2019-01-12T11:50:04.848Z,998.62
2019-01-12T11:51:04.836Z,998.60
2019-01-12T11:52:04.831Z,998.58
2019-01-12T11:53:04.828Z,998.57
2019-01-12T11:54:04.816Z,998.63
2019-01-12T11:55:04.812Z,998.63
2019-01-12T11:56:04.799Z,998.55
2019-01-12T11:57:04.800Z,998.57
2019-01-12T11:58:04.782Z,998.54
2019-01-12T11:59:04.779Z,998.53
2019-01-12T12:00:04.777Z,998.55
2019-01-12T12:01:04.989Z,998.53
2019-01-12T12:02:04.762Z,998.40
2019-01-12T12:03:04.759Z,998.46
2019-01-12T12:04:04.741Z,998.48
2019-01-12T12:05:04.729Z,998.49
2019-01-12T12:06:04.735Z,998.44
2019-01-12T12:07:04.728Z,998.44
2019-01-12T12:08:05.095Z,998.39